Pagrindinis puslapis
METAR-TAF:

METAR-TAF

Oro uostai :

Kanai, Prancūzija

platuma: 43-33N, ilguma: 006-57E, Aukštis: 3 m

Dabartinis oras

Ataskaita buvo paskelbta 29 minutes, ne 22:30 UTC
Vėjas 3 kt nuo kintamojo kryptimis
Temperatūra 12°C
Drėgmė 82%
Slėgis 1013 hPa
Matomumas 10 km arba daugiau
nėra debesų žemiau 1500 m ir nėra kamuolinių lietaus debesų

METAR: LFMD 282230Z AUTO VRB03KT CAVOK 12/09 Q1013

Laikas: 00:59 (22:59 UTC)

Prognozė

Ataskaita buvo paskelbta 8 valandos ir 59 minutes, ne 14:00 UTC
Prognozė galioja nuo 28 metu 15 UTC su 29 metu 15 UTC
Vėjas 8 kt iš Pietryčių
Matomumas 10 km arba daugiau
nėra debesų žemiau 1500 m ir nėra kamuolinių lietaus debesų
Tapsmas
nuo 28 metu 18 UTC su 28 metu 20 UTC
Vėjas 6 kt iš Šiaurės/Šiaurės Vakarų
Tapsmas
nuo 29 metu 08 UTC su 29 metu 10 UTC
Vėjas 10 kt iš Šiaurės Rytų

TAF: LFMD 281400Z 2815/2915 14008KT CAVOK BECMG 2818/2820 34006KT BECMG 2908/2910 04010KT

Orai ataskaitas ir orų prognozės (METAR, TAF).

turimą stotys yra geltonos ir raudonos taškus žemėlapyje.

Perkelti pele per norėdami pamatyti stoties vardą.

Tada spustelėkite, norėdami matyti oro stebėjimo ir prognozės.

Norėdami pakeisti žemėlapį: spustelėkite ant žalios mygtukų su juodo kryžiaus žemyn,; žalią mygtuką su brūkšneliu, jei norite nutolinti; arba žalių rodyklių gretimoms žemėlapius.


METAR-TAF: